createdAt,value
2023-03-30T00:01:12.264Z,4.70
2023-03-30T00:06:09.228Z,5.07
2023-03-30T00:08:37.179Z,8.25
2023-03-30T00:11:06.622Z,6.13
2023-03-30T00:13:34.869Z,6.03
2023-03-30T00:16:02.465Z,6.30
2023-03-30T00:18:30.207Z,5.90
2023-03-30T00:20:58.780Z,6.43
2023-03-30T00:23:26.484Z,6.32
2023-03-30T00:25:53.906Z,5.50
2023-03-30T00:28:21.532Z,6.20
2023-03-30T00:30:50.034Z,4.60
2023-03-30T00:33:17.452Z,5.55
2023-03-30T00:35:44.826Z,7.47
2023-03-30T00:38:12.247Z,7.30
2023-03-30T00:40:39.566Z,5.40
2023-03-30T00:43:08.765Z,7.38
2023-03-30T00:45:37.191Z,6.53
2023-03-30T00:48:04.612Z,5.65
2023-03-30T00:50:35.263Z,8.52
2023-03-30T00:53:07.296Z,6.45
2023-03-30T00:55:37.123Z,4.97
2023-03-30T00:58:05.229Z,7.28
2023-03-30T01:00:33.377Z,6.50
2023-03-30T01:03:04.184Z,5.55
2023-03-30T01:05:31.748Z,6.80
2023-03-30T01:07:59.492Z,7.13
2023-03-30T01:10:27.075Z,4.80
2023-03-30T01:12:54.597Z,6.13
2023-03-30T01:15:23.920Z,5.30
2023-03-30T01:17:53.366Z,5.85
2023-03-30T01:20:59.591Z,6.13
2023-03-30T01:23:27.582Z,7.35
2023-03-30T01:26:13.711Z,7.57
2023-03-30T01:28:50.403Z,4.85
2023-03-30T01:31:29.884Z,6.72
2023-03-30T01:34:11.723Z,9.82
2023-03-30T01:36:39.047Z,5.20
2023-03-30T01:39:07.083Z,5.43
2023-03-30T01:41:43.339Z,8.65
2023-03-30T01:44:10.702Z,5.95
2023-03-30T01:46:40.608Z,6.00
2023-03-30T01:49:23.424Z,4.57
2023-03-30T01:52:14.118Z,4.22
2023-03-30T01:54:44.793Z,5.15
2023-03-30T01:57:32.364Z,5.68
2023-03-30T02:00:01.567Z,6.50
2023-03-30T02:02:31.591Z,6.07
2023-03-30T02:05:00.998Z,5.47
2023-03-30T02:07:32.306Z,4.55
2023-03-30T02:10:02.506Z,6.40
2023-03-30T02:12:31.144Z,6.10
2023-03-30T02:15:00.417Z,4.53
2023-03-30T02:17:29.295Z,10.68
2023-03-30T02:19:58.394Z,9.02
2023-03-30T02:22:26.878Z,7.35
2023-03-30T02:24:56.217Z,5.43
2023-03-30T02:27:24.483Z,10.13
2023-03-30T02:29:52.729Z,7.65
2023-03-30T02:32:32.841Z,7.55
2023-03-30T02:35:07.421Z,7.57
2023-03-30T02:37:45.884Z,7.00
2023-03-30T02:40:28.438Z,6.80
2023-03-30T02:43:14.637Z,8.23
2023-03-30T02:45:43.179Z,8.80
2023-03-30T02:48:29.321Z,12.80
2023-03-30T02:51:09.034Z,6.95
2023-03-30T02:53:45.948Z,7.70
2023-03-30T02:56:25.518Z,8.43
2023-03-30T02:58:57.660Z,7.70
2023-03-30T03:01:54.559Z,6.95
2023-03-30T03:04:23.516Z,7.07
2023-03-30T03:06:53.198Z,7.10
2023-03-30T03:09:21.028Z,5.95
2023-03-30T03:11:48.346Z,6.13
2023-03-30T03:14:15.777Z,7.32
2023-03-30T03:16:43.139Z,8.40
2023-03-30T03:19:11.057Z,6.18
2023-03-30T03:21:38.481Z,9.45
2023-03-30T03:24:06.797Z,6.45
2023-03-30T03:26:34.210Z,8.88
2023-03-30T03:29:01.833Z,6.28
2023-03-30T03:31:29.218Z,9.18
2023-03-30T03:33:56.698Z,9.32
2023-03-30T03:36:24.087Z,8.32
2023-03-30T03:38:52.430Z,8.23
2023-03-30T03:41:19.959Z,8.23
2023-03-30T03:43:47.370Z,8.65
2023-03-30T03:46:15.094Z,7.88
2023-03-30T03:48:42.506Z,12.27
2023-03-30T03:51:10.125Z,8.82
2023-03-30T03:53:37.457Z,9.70
2023-03-30T03:56:04.971Z,8.75
2023-03-30T03:58:32.449Z,7.18
2023-03-30T04:01:00.921Z,7.13
2023-03-30T04:03:28.726Z,10.15
2023-03-30T04:05:59.190Z,10.18
2023-03-30T04:08:26.520Z,10.38
2023-03-30T04:10:53.889Z,11.02
2023-03-30T04:13:21.694Z,11.70
2023-03-30T04:15:49.045Z,11.63
2023-03-30T04:18:16.415Z,11.93
2023-03-30T04:20:43.824Z,10.20
2023-03-30T04:23:22.179Z,10.15
2023-03-30T04:25:52.042Z,11.60
2023-03-30T04:28:22.096Z,7.18
2023-03-30T04:30:50.845Z,8.10
2023-03-30T04:33:19.523Z,8.95
2023-03-30T04:35:46.964Z,7.57
2023-03-30T04:38:22.811Z,12.38
2023-03-30T04:40:50.729Z,8.98
2023-03-30T04:43:21.937Z,9.75
2023-03-30T04:45:51.065Z,6.85
2023-03-30T04:48:19.729Z,9.80
2023-03-30T04:50:47.732Z,8.20
2023-03-30T04:53:15.391Z,11.95
2023-03-30T04:55:43.212Z,7.00
2023-03-30T04:58:12.441Z,9.20
2023-03-30T05:00:39.890Z,6.60
2023-03-30T05:03:07.403Z,6.93
2023-03-30T05:05:35.379Z,7.53
2023-03-30T05:08:02.782Z,8.32
2023-03-30T05:10:30.141Z,12.23
2023-03-30T05:12:57.571Z,9.05
2023-03-30T05:15:24.919Z,12.55
2023-03-30T05:17:52.482Z,9.52
2023-03-30T05:20:20.386Z,9.38
2023-03-30T05:22:47.931Z,13.10
2023-03-30T05:25:15.442Z,11.55
2023-03-30T05:27:43.380Z,11.73
2023-03-30T05:30:10.919Z,8.80
2023-03-30T05:32:38.313Z,8.70
2023-03-30T05:35:05.873Z,7.85
2023-03-30T05:37:33.236Z,12.18
2023-03-30T05:40:00.886Z,9.57
2023-03-30T05:42:28.206Z,9.55
2023-03-30T05:44:56.577Z,8.05
2023-03-30T05:47:25.338Z,12.68
2023-03-30T05:49:52.694Z,12.05
2023-03-30T05:52:20.123Z,9.95
2023-03-30T05:54:47.434Z,9.40
2023-03-30T05:57:14.788Z,11.43
2023-03-30T05:59:42.218Z,9.68
2023-03-30T06:02:11.002Z,9.50
2023-03-30T06:04:38.564Z,7.93
2023-03-30T06:07:06.743Z,8.80
2023-03-30T06:09:34.374Z,8.40
2023-03-30T06:12:02.754Z,6.10
2023-03-30T06:14:30.227Z,7.25
2023-03-30T06:16:57.663Z,7.13
2023-03-30T06:19:25.198Z,6.13
2023-03-30T06:21:52.555Z,9.23
2023-03-30T06:24:21.039Z,6.53
2023-03-30T06:26:48.878Z,6.63
2023-03-30T06:29:16.350Z,6.32
2023-03-30T06:31:43.942Z,7.25
2023-03-30T06:34:11.654Z,8.50
2023-03-30T06:36:44.950Z,7.50
2023-03-30T06:39:13.376Z,6.65
2023-03-30T06:41:40.949Z,6.70
2023-03-30T06:44:10.643Z,6.75
2023-03-30T06:46:38.295Z,9.43
2023-03-30T06:49:05.661Z,5.40
2023-03-30T06:51:35.573Z,7.05
2023-03-30T06:54:03.077Z,10.90
2023-03-30T06:56:30.687Z,5.28
2023-03-30T06:58:58.040Z,8.10
2023-03-30T07:01:25.459Z,7.10
2023-03-30T07:03:53.635Z,5.28
2023-03-30T07:06:21.373Z,8.15
2023-03-30T07:08:49.314Z,6.03
2023-03-30T07:11:16.640Z,7.00
2023-03-30T07:13:44.032Z,7.65
2023-03-30T07:16:11.487Z,3.95
2023-03-30T07:18:38.872Z,5.20
2023-03-30T07:21:06.828Z,7.35
2023-03-30T07:23:34.443Z,4.95
2023-03-30T07:26:02.509Z,5.82
2023-03-30T07:28:29.888Z,9.35
2023-03-30T07:31:06.774Z,5.43
2023-03-30T07:33:34.552Z,7.53
2023-03-30T07:36:01.967Z,6.50
2023-03-30T07:38:29.302Z,6.68
2023-03-30T07:40:56.665Z,6.97
2023-03-30T07:43:24.173Z,6.32
2023-03-30T07:45:51.711Z,7.22
2023-03-30T07:48:19.069Z,7.40
2023-03-30T07:50:46.759Z,7.13
2023-03-30T07:53:14.300Z,5.45
2023-03-30T07:55:41.667Z,7.20
2023-03-30T07:58:09.125Z,7.15
2023-03-30T08:00:36.529Z,6.97
2023-03-30T08:03:04.563Z,5.70
2023-03-30T08:05:32.065Z,5.18
2023-03-30T08:07:59.455Z,8.23
2023-03-30T08:10:27.407Z,5.03
2023-03-30T08:12:54.703Z,6.78
2023-03-30T08:15:22.299Z,5.13
2023-03-30T08:17:49.738Z,8.60
2023-03-30T08:20:17.203Z,8.77
2023-03-30T08:22:44.534Z,8.60
2023-03-30T08:25:12.144Z,9.98
2023-03-30T08:27:39.565Z,6.78
2023-03-30T08:30:07.316Z,7.18
2023-03-30T08:32:34.872Z,5.40
2023-03-30T08:35:02.739Z,6.40
2023-03-30T08:37:30.076Z,8.23
2023-03-30T08:39:57.401Z,5.05
2023-03-30T08:42:24.900Z,7.10
2023-03-30T08:44:56.151Z,7.72
2023-03-30T08:47:30.126Z,7.22
2023-03-30T08:50:03.594Z,8.57
2023-03-30T08:52:32.961Z,5.80
2023-03-30T08:55:00.737Z,5.20
2023-03-30T08:57:34.171Z,5.55
2023-03-30T09:00:12.637Z,6.93
2023-03-30T09:02:43.274Z,7.03
2023-03-30T09:05:11.019Z,3.55
2023-03-30T09:07:38.406Z,5.45
2023-03-30T09:10:11.151Z,7.13
2023-03-30T09:12:55.674Z,6.82
2023-03-30T09:15:32.128Z,5.40
2023-03-30T09:18:01.066Z,3.72
2023-03-30T09:20:30.265Z,7.63
2023-03-30T09:22:59.771Z,6.90
2023-03-30T09:25:32.761Z,9.05
2023-03-30T09:28:09.584Z,6.90
2023-03-30T09:30:40.131Z,5.95
2023-03-30T09:33:13.966Z,5.47
2023-03-30T09:35:48.489Z,9.68
2023-03-30T09:38:16.082Z,6.60
2023-03-30T09:40:52.834Z,5.45
2023-03-30T09:43:34.378Z,5.43
2023-03-30T09:46:07.509Z,6.55
2023-03-30T09:48:41.487Z,9.35
2023-03-30T09:51:16.603Z,5.97
2023-03-30T09:56:17.834Z,5.75
2023-03-30T09:58:45.228Z,6.65
2023-03-30T10:01:13.927Z,6.88
2023-03-30T10:03:45.568Z,4.75
2023-03-30T10:06:19.841Z,9.27
2023-03-30T10:08:51.559Z,4.38
2023-03-30T10:11:22.838Z,4.70
2023-03-30T10:13:51.920Z,4.20
2023-03-30T10:16:29.626Z,5.18
2023-03-30T10:19:00.783Z,7.40
2023-03-30T10:21:31.218Z,7.00
2023-03-30T10:24:18.754Z,5.82
2023-03-30T10:26:47.049Z,6.22
2023-03-30T10:29:16.787Z,8.73
2023-03-30T10:31:46.317Z,6.13
2023-03-30T10:34:32.244Z,7.40
2023-03-30T10:36:59.606Z,3.65
2023-03-30T10:39:30.252Z,5.05
2023-03-30T10:41:59.903Z,6.82
2023-03-30T10:44:37.994Z,6.07
2023-03-30T10:47:27.775Z,6.05
2023-03-30T10:49:58.366Z,4.00
2023-03-30T10:52:31.904Z,5.25
2023-03-30T10:55:07.978Z,6.20
2023-03-30T10:57:42.533Z,6.32
2023-03-30T11:00:10.307Z,4.35
2023-03-30T11:02:46.346Z,3.78
2023-03-30T11:05:17.088Z,5.32
2023-03-30T11:07:47.592Z,5.15
2023-03-30T11:10:14.980Z,8.07
2023-03-30T11:12:44.007Z,3.85
2023-03-30T11:15:15.627Z,5.78
2023-03-30T11:17:51.948Z,8.90
2023-03-30T11:20:20.972Z,4.30
2023-03-30T11:22:50.471Z,8.68
2023-03-30T11:25:30.742Z,3.70
2023-03-30T11:28:07.060Z,3.80
2023-03-30T11:30:35.014Z,4.63
2023-03-30T11:33:21.181Z,4.32
2023-03-30T11:35:49.752Z,2.63
2023-03-30T11:38:20.121Z,4.45
2023-03-30T11:40:47.519Z,5.45
2023-03-30T11:43:16.742Z,6.60
2023-03-30T11:45:47.098Z,6.13
2023-03-30T11:48:14.481Z,4.40
2023-03-30T11:50:44.020Z,2.50
2023-03-30T11:53:31.841Z,2.10
2023-03-30T11:56:03.579Z,4.72
2023-03-30T11:58:47.371Z,6.55
2023-03-30T12:01:14.717Z,3.90
2023-03-30T12:03:43.056Z,6.15
2023-03-30T12:06:13.600Z,2.97
2023-03-30T12:08:56.256Z,6.60
2023-03-30T12:11:40.589Z,2.85
2023-03-30T12:14:23.754Z,6.30
2023-03-30T12:16:53.009Z,5.45
2023-03-30T12:19:25.550Z,5.50
2023-03-30T12:22:01.227Z,4.97
2023-03-30T12:24:28.568Z,4.78
2023-03-30T12:27:05.322Z,4.35
2023-03-30T12:30:01.802Z,6.10
2023-03-30T12:32:31.139Z,2.40
2023-03-30T12:34:59.360Z,6.53
2023-03-30T12:37:35.764Z,3.45
2023-03-30T12:40:10.705Z,3.72
2023-03-30T12:42:47.136Z,3.45
2023-03-30T12:45:23.565Z,7.70
2023-03-30T12:48:03.362Z,3.35
2023-03-30T12:50:37.348Z,2.28
2023-03-30T12:53:04.672Z,2.65
2023-03-30T12:55:53.781Z,3.60
2023-03-30T12:58:26.932Z,6.43
2023-03-30T13:01:04.280Z,2.65
2023-03-30T13:03:37.374Z,2.72
2023-03-30T13:06:06.673Z,5.05
2023-03-30T13:08:37.012Z,4.05
2023-03-30T13:11:21.273Z,2.45
2023-03-30T13:13:56.782Z,6.20
2023-03-30T13:16:42.954Z,5.68
2023-03-30T13:19:29.096Z,3.85
2023-03-30T13:21:57.975Z,3.42
2023-03-30T13:24:28.679Z,2.58
2023-03-30T13:27:11.395Z,3.80
2023-03-30T13:29:38.852Z,3.78
2023-03-30T13:32:24.530Z,5.95
2023-03-30T13:35:06.737Z,5.88
2023-03-30T13:37:38.454Z,2.97
2023-03-30T13:40:37.966Z,3.58
2023-03-30T13:43:11.258Z,5.90
2023-03-30T13:45:44.375Z,3.92
2023-03-30T13:48:31.141Z,4.65
2023-03-30T13:50:59.945Z,3.38
2023-03-30T13:53:29.760Z,5.47
2023-03-30T13:55:57.112Z,3.35
2023-03-30T13:58:28.111Z,4.43
2023-03-30T14:00:58.111Z,5.63
2023-03-30T14:03:28.554Z,2.80
2023-03-30T14:06:04.759Z,3.58
2023-03-30T14:08:37.639Z,5.15
2023-03-30T14:11:09.305Z,3.15
2023-03-30T14:13:38.425Z,4.38
2023-03-30T14:16:06.908Z,2.95
2023-03-30T14:18:34.604Z,5.38
2023-03-30T14:21:04.226Z,5.32
2023-03-30T14:23:34.668Z,3.08
2023-03-30T14:26:03.748Z,6.45
2023-03-30T14:28:34.399Z,9.35
2023-03-30T14:31:05.898Z,3.72
2023-03-30T14:33:33.464Z,3.08
2023-03-30T14:36:01.417Z,4.18
2023-03-30T14:38:37.623Z,4.03
2023-03-30T14:41:24.862Z,7.53
2023-03-30T14:43:55.158Z,5.20
2023-03-30T14:46:23.895Z,3.00
2023-03-30T14:48:54.594Z,4.68
2023-03-30T14:51:22.000Z,6.10
2023-03-30T14:53:49.416Z,2.65
2023-03-30T14:56:18.355Z,6.68
2023-03-30T14:58:46.492Z,4.35
2023-03-30T15:01:16.514Z,3.88
2023-03-30T15:03:44.107Z,4.63
2023-03-30T15:06:16.440Z,6.47
2023-03-30T15:08:46.742Z,7.15
2023-03-30T15:11:21.973Z,3.55
2023-03-30T15:13:52.563Z,4.63
2023-03-30T15:16:24.599Z,3.63
2023-03-30T15:18:53.379Z,5.47
2023-03-30T15:21:20.966Z,7.22
2023-03-30T15:23:49.528Z,5.05
2023-03-30T15:26:17.418Z,9.23
2023-03-30T15:28:52.652Z,6.25
2023-03-30T15:31:20.813Z,4.38
2023-03-30T15:33:58.222Z,3.20
2023-03-30T15:36:26.980Z,5.15
2023-03-30T15:38:56.210Z,4.60
2023-03-30T15:41:24.860Z,4.32
2023-03-30T15:43:56.347Z,3.83
2023-03-30T15:46:23.941Z,3.00
2023-03-30T15:48:52.744Z,4.03
2023-03-30T15:51:23.151Z,5.45
2023-03-30T15:53:55.657Z,3.33
2023-03-30T15:56:39.926Z,3.97
2023-03-30T15:59:12.812Z,3.72
2023-03-30T16:02:09.393Z,3.72
2023-03-30T16:04:36.853Z,3.70
2023-03-30T16:07:09.264Z,5.57
2023-03-30T16:09:36.604Z,5.78
2023-03-30T16:12:04.004Z,3.05
2023-03-30T16:14:31.992Z,2.92
2023-03-30T16:17:00.326Z,5.53
2023-03-30T16:19:27.694Z,2.75
2023-03-30T16:21:55.010Z,3.15
2023-03-30T16:24:22.515Z,1.95
2023-03-30T16:26:49.848Z,1.27
2023-03-30T16:29:21.752Z,3.78
2023-03-30T16:31:49.820Z,1.75
2023-03-30T16:34:17.600Z,2.83
2023-03-30T16:36:45.714Z,1.30
2023-03-30T16:39:20.509Z,1.88
2023-03-30T16:41:48.600Z,2.35
2023-03-30T16:44:16.635Z,2.58
2023-03-30T16:46:44.041Z,1.60
2023-03-30T16:49:15.796Z,3.47
2023-03-30T16:51:43.789Z,0.70
2023-03-30T16:54:23.092Z,4.70
2023-03-30T16:56:57.517Z,2.45
2023-03-30T16:59:26.521Z,3.85
2023-03-30T17:01:53.943Z,3.67
2023-03-30T17:04:21.579Z,4.68
2023-03-30T17:06:49.554Z,2.72
2023-03-30T17:09:18.165Z,2.75
2023-03-30T17:11:46.595Z,2.55
2023-03-30T17:14:14.192Z,1.75
2023-03-30T17:16:42.201Z,4.85
2023-03-30T17:19:13.162Z,4.45
2023-03-30T17:21:42.995Z,2.35
2023-03-30T17:24:11.371Z,4.55
2023-03-30T17:26:38.890Z,5.20
2023-03-30T17:29:06.301Z,3.13
2023-03-30T17:31:33.848Z,2.85
2023-03-30T17:34:01.543Z,5.63
2023-03-30T17:36:29.214Z,5.30
2023-03-30T17:38:56.820Z,3.97
2023-03-30T17:41:24.215Z,4.88
2023-03-30T17:43:51.733Z,4.80
2023-03-30T17:46:20.533Z,7.43
2023-03-30T17:48:48.122Z,7.15
2023-03-30T17:51:15.646Z,6.75
2023-03-30T17:53:43.331Z,7.72
2023-03-30T17:56:14.011Z,4.57
2023-03-30T17:58:41.401Z,6.45
2023-03-30T18:01:09.752Z,4.50
2023-03-30T18:03:39.485Z,4.10
2023-03-30T18:06:07.348Z,3.10
2023-03-30T18:08:34.770Z,2.33
2023-03-30T18:11:02.163Z,5.45
2023-03-30T18:13:30.956Z,5.28
2023-03-30T18:15:59.570Z,5.07
2023-03-30T18:18:28.293Z,6.82
2023-03-30T18:21:05.598Z,3.75
2023-03-30T18:23:34.670Z,5.05
2023-03-30T18:26:04.109Z,3.85
2023-03-30T18:28:31.731Z,4.38
2023-03-30T18:31:00.991Z,5.65
2023-03-30T18:33:28.701Z,5.05
2023-03-30T18:36:05.036Z,8.07
2023-03-30T18:38:33.638Z,8.07
2023-03-30T18:41:03.892Z,6.72
2023-03-30T18:43:31.289Z,6.20
2023-03-30T18:46:01.803Z,8.15
2023-03-30T18:48:30.131Z,5.60
2023-03-30T18:50:57.496Z,7.68
2023-03-30T18:53:26.133Z,8.25
2023-03-30T18:55:54.639Z,5.28
2023-03-30T18:58:23.327Z,7.40
2023-03-30T19:00:51.868Z,4.93
2023-03-30T19:03:19.846Z,5.53
2023-03-30T19:05:47.333Z,3.75
2023-03-30T19:08:18.594Z,5.20
2023-03-30T19:10:46.907Z,4.82
2023-03-30T19:13:14.968Z,3.22
2023-03-30T19:15:42.787Z,4.97
2023-03-30T19:18:10.210Z,4.68
2023-03-30T19:20:39.934Z,4.75
2023-03-30T19:23:07.492Z,4.32
2023-03-30T19:25:35.009Z,3.97
2023-03-30T19:28:04.192Z,5.60
2023-03-30T19:30:33.629Z,2.88
2023-03-30T19:33:03.748Z,4.30
2023-03-30T19:35:31.545Z,3.28
2023-03-30T19:37:59.167Z,4.82
2023-03-30T19:40:26.678Z,6.57
2023-03-30T19:42:54.114Z,6.47
2023-03-30T19:45:24.072Z,6.80
2023-03-30T19:47:51.954Z,4.68
2023-03-30T19:50:20.432Z,5.53
2023-03-30T19:52:50.255Z,5.45
2023-03-30T19:55:20.659Z,3.70
2023-03-30T19:57:48.133Z,4.88
2023-03-30T20:00:17.456Z,4.72
2023-03-30T20:02:46.404Z,6.82
2023-03-30T20:05:14.225Z,8.50
2023-03-30T20:07:41.807Z,5.88
2023-03-30T20:10:10.499Z,7.43
2023-03-30T20:12:38.267Z,6.60
2023-03-30T20:15:06.589Z,3.80
2023-03-30T20:17:36.613Z,5.75
2023-03-30T20:20:07.231Z,7.35
2023-03-30T20:22:38.446Z,5.03
2023-03-30T20:25:07.772Z,5.00
2023-03-30T20:27:35.915Z,5.80
2023-03-30T20:30:03.662Z,2.75
2023-03-30T20:32:31.262Z,3.33
2023-03-30T20:34:58.833Z,4.13
2023-03-30T20:37:26.133Z,3.72
2023-03-30T20:39:53.546Z,4.95
2023-03-30T20:42:26.462Z,6.40
2023-03-30T20:44:54.491Z,4.20
2023-03-30T20:47:26.234Z,3.90
2023-03-30T20:49:56.519Z,5.00
2023-03-30T20:52:24.068Z,2.03
2023-03-30T20:54:52.969Z,3.78
2023-03-30T20:57:21.643Z,6.40
2023-03-30T20:59:49.409Z,4.63
2023-03-30T21:02:17.447Z,3.83
2023-03-30T21:04:45.065Z,3.38
2023-03-30T21:07:13.015Z,5.05
2023-03-30T21:09:40.816Z,4.28
2023-03-30T21:12:09.787Z,3.85
2023-03-30T21:14:37.200Z,3.45
2023-03-30T21:17:04.726Z,3.10
2023-03-30T21:19:32.294Z,4.47
2023-03-30T21:22:01.315Z,4.75
2023-03-30T21:24:29.032Z,5.78
2023-03-30T21:26:56.661Z,2.55
2023-03-30T21:29:24.243Z,4.53
2023-03-30T21:31:51.677Z,3.20
2023-03-30T21:34:19.231Z,1.80
2023-03-30T21:36:46.814Z,1.65
2023-03-30T21:39:14.500Z,4.50
2023-03-30T21:41:41.871Z,3.75
2023-03-30T21:44:09.263Z,5.20
2023-03-30T21:46:36.793Z,3.30
2023-03-30T21:49:04.207Z,2.95
2023-03-30T21:51:32.339Z,2.25
2023-03-30T21:54:00.146Z,2.15
2023-03-30T21:56:29.408Z,3.03
2023-03-30T21:58:57.428Z,1.48
2023-03-30T22:01:25.316Z,2.17
2023-03-30T22:03:53.718Z,3.53
2023-03-30T22:06:21.617Z,2.28
2023-03-30T22:08:48.972Z,2.20
2023-03-30T22:11:18.045Z,1.17
2023-03-30T22:13:47.584Z,4.38
2023-03-30T22:16:22.922Z,2.40
2023-03-30T22:18:50.835Z,1.40
2023-03-30T22:21:19.708Z,3.05
2023-03-30T22:23:47.312Z,1.77
2023-03-30T22:26:14.888Z,1.80
2023-03-30T22:28:42.240Z,2.67
2023-03-30T22:31:10.524Z,1.55
2023-03-30T22:33:38.028Z,2.92
2023-03-30T22:36:07.716Z,2.55
2023-03-30T22:38:35.747Z,2.10
2023-03-30T22:41:07.035Z,1.88
2023-03-30T22:43:34.836Z,2.42
2023-03-30T22:46:02.166Z,7.40
2023-03-30T22:48:29.558Z,2.13
2023-03-30T22:50:58.803Z,2.60
2023-03-30T22:53:26.196Z,4.75
2023-03-30T22:55:53.518Z,1.83
2023-03-30T22:58:20.870Z,2.05
2023-03-30T23:00:48.235Z,1.85
2023-03-30T23:03:15.852Z,4.93
2023-03-30T23:05:43.327Z,1.88
2023-03-30T23:08:12.423Z,3.70
2023-03-30T23:10:42.253Z,1.90
2023-03-30T23:13:09.579Z,3.42
2023-03-30T23:15:36.933Z,1.80
2023-03-30T23:18:06.199Z,1.80
2023-03-30T23:20:33.575Z,2.67
2023-03-30T23:23:01.193Z,4.47
2023-03-30T23:25:28.610Z,2.53
2023-03-30T23:27:57.991Z,2.30
2023-03-30T23:30:25.769Z,1.88
2023-03-30T23:32:53.101Z,1.92
2023-03-30T23:35:20.545Z,4.38
2023-03-30T23:37:50.150Z,4.93
2023-03-30T23:40:17.529Z,3.10
2023-03-30T23:42:44.842Z,3.80
2023-03-30T23:45:12.312Z,2.95
2023-03-30T23:47:39.712Z,3.35
2023-03-30T23:50:07.798Z,7.03
2023-03-30T23:52:35.477Z,1.90
2023-03-30T23:55:03.773Z,2.47
2023-03-30T23:57:31.255Z,2.58
2023-03-30T23:59:58.606Z,2.80
